LFRC

Cherbourg-Maupertus Airport

Airport
ICAO code
LFRC
IATA Code
CER
Summary
ICAO Region
EUR
ICAO Territory
Location

, Basse-Normandie

Serving
Cherbourg
Elevation
459 ft
Coordinates
49° 39' 0" N , 1° 28' 13" W
Metar
Observation
LFRC 092000Z AUTO VRB02KT 9999 BKN026 BKN031 OVC038 04/00 Q1008 TEMPO 4000 SHRASN SCT025TCU
Station
Cherbourg / Maupertus
Date/Time
2022-12-09 20:00:00
Wind speed
02 kts
Lowest cloud amount
broken clouds
Temperature
4°C
Dew point
0°C
Humidity
75%
QNH
1008 hPa
Weather condition
n/a

Runways

Designator Length Width Surface Rops
10/28 2440 45 ASP No/No

Airport map

Aerial View

SKYbrary Partners:

Safety knowledge contributed by: